Time;durP1;ratioP1;P1;durP2;ratioP2;P2;SDS_P1;SDS_P2;PMS_P1;PMS_P2;Temp;Humidity;BMP_temperature;BMP_pressure;BME280_temperature;BME280_humidity;BME280_pressure;Samples;Min_cycle;Max_cycle;Signal;HPM_P1;HPM_P2
2023/12/25 00:00:29;;;;;;;17.30;3.60;;;12.20;99.90;;;;;;5060685;28;20075;-72
2023/12/25 00:02:59;;;;;;;14.75;3.67;;;12.10;99.90;;;;;;5077114;28;20145;-73
2023/12/25 00:05:25;;;;;;;17.00;3.50;;;12.10;99.90;;;;;;5110713;28;20058;-73
2023/12/25 00:07:50;;;;;;;14.63;3.40;;;12.10;99.90;;;;;;5060399;28;20044;-73
2023/12/25 00:10:17;;;;;;;13.75;3.67;;;12.10;99.90;;;;;;5093691;28;20385;-73
2023/12/25 00:12:43;;;;;;;14.80;3.38;;;12.10;99.90;;;;;;5060073;28;20046;-72
2023/12/25 00:15:09;;;;;;;16.30;3.90;;;12.10;99.90;;;;;;5060331;28;20131;-72
2023/12/25 00:17:35;;;;;;;18.63;4.00;;;12.10;99.90;;;;;;5093043;28;20044;-73
2023/12/25 00:20:03;;;;;;;16.25;3.40;;;12.10;99.90;;;;;;5110508;28;20515;-72
2023/12/25 00:22:29;;;;;;;20.50;3.67;;;12.00;99.90;;;;;;5060452;28;20043;-73
2023/12/25 00:24:56;;;;;;;19.17;3.88;;;12.00;99.90;;;;;;5060027;28;20066;-77
2023/12/25 00:27:22;;;;;;;14.60;3.50;;;12.00;99.90;;;;;;5060141;28;20507;-76
2023/12/25 00:29:48;;;;;;;16.23;3.88;;;12.00;99.90;;;;;;5076465;28;20036;-76
2023/12/25 00:32:15;;;;;;;12.65;3.03;;;12.00;99.90;;;;;;5076232;28;20040;-77
2023/12/25 00:34:42;;;;;;;19.75;3.80;;;12.00;99.90;;;;;;5076554;28;20047;-76
2023/12/25 00:37:09;;;;;;;18.27;3.38;;;12.00;99.90;;;;;;5076742;28;20504;-77
2023/12/25 00:39:44;;;;;;;17.73;3.50;;;12.00;99.90;;;;;;5076594;28;20130;-76
2023/12/25 00:42:09;;;;;;;16.10;3.53;;;12.00;99.90;;;;;;5110443;28;20065;-77
2023/12/25 00:44:35;;;;;;;15.80;3.30;;;12.00;99.90;;;;;;5059652;28;20047;-75
2023/12/25 00:47:01;;;;;;;15.60;3.20;;;12.00;99.90;;;;;;5059644;28;20063;-76
2023/12/25 00:49:27;;;;;;;16.60;3.60;;;11.90;99.90;;;;;;5076284;28;20075;-77
2023/12/25 00:51:53;;;;;;;16.73;3.47;;;11.90;99.90;;;;;;5059422;28;20503;-76
2023/12/25 00:54:20;;;;;;;14.50;3.10;;;11.90;99.90;;;;;;5076278;28;20042;-76
2023/12/25 00:56:46;;;;;;;14.32;3.05;;;11.90;99.90;;;;;;5043051;28;20040;-76
2023/12/25 00:59:12;;;;;;;16.33;3.13;;;11.80;99.90;;;;;;5092782;28;20455;-76
2023/12/25 01:01:38;;;;;;;12.65;2.55;;;11.80;99.90;;;;;;5059274;28;20040;-77
2023/12/25 01:04:04;;;;;;;11.70;2.50;;;11.90;99.90;;;;;;5043105;28;20048;-77
2023/12/25 01:06:30;;;;;;;13.25;2.80;;;11.80;99.90;;;;;;5059363;28;20044;-76
2023/12/25 01:08:56;;;;;;;14.07;2.70;;;11.80;99.90;;;;;;5092565;28;20136;-77
2023/12/25 01:11:37;;;;;;;14.65;2.88;;;11.80;99.90;;;;;;5042644;28;20039;-77
2023/12/25 01:14:03;;;;;;;14.55;3.10;;;11.70;99.90;;;;;;5078154;28;20044;-77
2023/12/25 01:16:29;;;;;;;15.02;3.03;;;11.70;99.90;;;;;;5059411;28;20503;-77
2023/12/25 01:18:57;;;;;;;12.88;2.60;;;11.70;99.90;;;;;;5059329;28;20047;-77
2023/12/25 01:21:24;;;;;;;13.48;3.15;;;11.70;99.90;;;;;;5092476;28;20173;-76
2023/12/25 01:23:49;;;;;;;13.77;2.97;;;11.60;99.90;;;;;;5042447;28;20047;-77
2023/12/25 01:26:15;;;;;;;14.65;3.35;;;11.60;99.90;;;;;;5074790;28;20419;-77
2023/12/25 01:28:42;;;;;;;16.95;3.10;;;11.50;99.90;;;;;;5059056;28;20043;-77
2023/12/25 01:31:12;;;;;;;19.02;3.20;;;11.50;99.90;;;;;;5059279;28;20040;-77
2023/12/25 01:33:47;;;;;;;17.67;3.00;;;11.50;99.90;;;;;;5075748;28;20050;-77
2023/12/25 01:36:13;;;;;;;11.80;3.00;;;11.50;99.90;;;;;;5059211;28;20081;-78
2023/12/25 01:38:39;;;;;;;14.93;2.97;;;11.40;99.90;;;;;;5092340;28;20032;-77
2023/12/25 01:41:05;;;;;;;16.10;3.00;;;11.50;99.90;;;;;;5058619;28;20135;-78
2023/12/25 01:43:39;;;;;;;14.05;2.88;;;11.40;99.90;;;;;;5059262;28;20048;-77
2023/12/25 01:46:06;;;;;;;16.05;3.00;;;11.40;99.90;;;;;;5058887;28;20052;-77
2023/12/25 01:48:33;;;;;;;15.68;3.00;;;11.40;99.90;;;;;;5074788;28;20084;-77
2023/12/25 01:51:00;;;;;;;16.13;3.25;;;11.40;99.90;;;;;;5042178;28;20105;-76
2023/12/25 01:53:26;;;;;;;11.43;2.90;;;11.50;99.90;;;;;;5109259;28;20052;-78
2023/12/25 01:55:53;;;;;;;17.15;3.20;;;11.50;99.90;;;;;;5042191;28;20044;-77
2023/12/25 01:58:18;;;;;;;12.93;2.47;;;11.40;99.90;;;;;;5092121;28;20089;-77
2023/12/25 02:00:44;;;;;;;13.65;2.80;;;11.50;99.90;;;;;;5074977;28;20048;-76
2023/12/25 02:03:10;;;;;;;12.95;2.72;;;11.40;99.90;;;;;;5075293;28;20391;-76
2023/12/25 02:05:39;;;;;;;13.25;2.60;;;11.40;99.90;;;;;;5075403;28;20070;-76
2023/12/25 02:08:14;;;;;;;13.05;2.67;;;11.40;99.90;;;;;;5058787;28;20047;-77
2023/12/25 02:10:40;;;;;;;12.13;2.50;;;11.40;99.90;;;;;;5059553;28;20047;-75
2023/12/25 02:13:06;;;;;;;10.30;2.28;;;11.40;99.90;;;;;;5058177;28;20082;-76
2023/12/25 02:15:35;;;;;;;12.35;2.65;;;11.40;99.90;;;;;;5075159;28;20078;-77
2023/12/25 02:18:02;;;;;;;12.70;2.42;;;11.30;99.90;;;;;;5042096;28;20075;-78
2023/12/25 02:20:28;;;;;;;14.82;3.10;;;11.40;99.90;;;;;;5074999;28;20475;-78
2023/12/25 02:22:56;;;;;;;13.13;2.85;;;11.30;99.90;;;;;;5074973;28;20092;-78
2023/12/25 02:25:33;;;;;;;12.82;2.65;;;11.30;99.90;;;;;;5058479;28;20404;-76
2023/12/25 02:28:02;;;;;;;14.38;3.00;;;11.30;99.90;;;;;;5058220;28;20040;-77
2023/12/25 02:30:29;;;;;;;14.20;2.90;;;11.30;99.90;;;;;;5058192;28;20036;-77
2023/12/25 02:32:55;;;;;;;12.70;2.50;;;11.20;99.90;;;;;;5074714;28;20051;-77
2023/12/25 02:35:21;;;;;;;14.38;2.70;;;11.20;99.90;;;;;;5108868;28;20128;-77
2023/12/25 02:37:48;;;;;;;12.63;2.47;;;11.20;99.90;;;;;;5111787;28;20036;-77
2023/12/25 02:40:13;;;;;;;14.45;2.72;;;11.20;99.90;;;;;;5095883;28;20476;-77
2023/12/25 02:42:39;;;;;;;12.77;2.70;;;11.30;99.90;;;;;;5062090;28;20079;-77
2023/12/25 02:45:06;;;;;;;11.18;2.35;;;11.30;99.90;;;;;;5078737;28;20046;-76
2023/12/25 02:47:31;;;;;;;12.25;2.78;;;11.30;99.90;;;;;;5078689;28;20073;-77
2023/12/25 02:49:59;;;;;;;13.50;2.72;;;11.30;99.90;;;;;;5062228;28;20484;-78
2023/12/25 02:52:25;;;;;;;10.90;2.60;;;11.20;99.90;;;;;;5112047;28;20528;-78
2023/12/25 02:54:51;;;;;;;10.60;2.50;;;11.20;99.90;;;;;;5061966;28;20131;-77
2023/12/25 02:57:17;;;;;;;9.30;2.25;;;11.20;99.90;;;;;;5078243;28;20123;-77
2023/12/25 02:59:43;;;;;;;14.15;2.60;;;11.20;99.90;;;;;;5078644;28;20051;-78
2023/12/25 03:02:09;;;;;;;11.88;2.28;;;11.20;99.90;;;;;;5061965;28;20056;-79
2023/12/25 03:04:35;;;;;;;12.32;2.17;;;11.20;99.90;;;;;;5044864;28;20040;-72
2023/12/25 03:07:22;;;;;;;12.68;2.33;;;11.20;99.90;;;;;;5078430;28;20051;-73
2023/12/25 03:09:48;;;;;;;11.40;2.20;;;11.20;99.90;;;;;;5080470;28;20064;-72
2023/12/25 03:12:15;;;;;;;9.27;2.00;;;11.20;99.90;;;;;;5061697;28;20040;-73
2023/12/25 03:14:53;;;;;;;10.73;2.28;;;11.20;99.90;;;;;;5078212;28;20089;-72
2023/12/25 03:17:19;;;;;;;11.43;2.30;;;11.20;99.90;;;;;;5077911;28;20036;-73
2023/12/25 03:19:45;;;;;;;10.02;2.33;;;11.10;99.90;;;;;;5061568;28;20442;-73
2023/12/25 03:22:11;;;;;;;8.40;2.00;;;11.10;99.90;;;;;;5061110;28;20527;-73
2023/12/25 03:24:37;;;;;;;11.55;2.25;;;11.10;99.90;;;;;;5078362;28;20036;-74
2023/12/25 03:27:03;;;;;;;11.05;2.20;;;11.10;99.90;;;;;;5078310;28;20395;-73
2023/12/25 03:29:29;;;;;;;11.77;2.10;;;11.10;99.90;;;;;;5094472;28;20040;-73
2023/12/25 03:31:55;;;;;;;10.75;2.03;;;11.10;99.90;;;;;;5061383;28;20484;-73
2023/12/25 03:34:21;;;;;;;11.77;2.10;;;11.10;99.90;;;;;;5061061;28;20032;-73
2023/12/25 03:36:46;;;;;;;11.27;2.00;;;11.10;99.90;;;;;;5077744;28;20059;-73
2023/12/25 03:39:12;;;;;;;9.10;2.03;;;11.00;99.90;;;;;;5061123;28;20484;-73
2023/12/25 03:41:38;;;;;;;9.02;1.80;;;11.10;99.90;;;;;;5061067;28;20082;-72
2023/12/25 03:44:04;;;;;;;13.73;1.95;;;11.00;99.90;;;;;;5077497;28;20531;-72
2023/12/25 03:46:30;;;;;;;12.77;2.40;;;11.00;99.90;;;;;;5077470;28;20438;-73
2023/12/25 03:49:11;;;;;;;9.77;2.10;;;11.10;99.90;;;;;;5076590;28;20427;-73
2023/12/25 03:51:43;;;;;;;10.75;1.88;;;11.00;99.90;;;;;;5111195;28;20048;-74
2023/12/25 03:54:09;;;;;;;10.05;2.00;;;11.10;99.90;;;;;;5078404;28;20455;-74
2023/12/25 03:56:47;;;;;;;11.05;2.15;;;11.10;99.90;;;;;;5060989;28;20503;-73
2023/12/25 03:59:13;;;;;;;10.15;1.80;;;11.10;99.90;;;;;;5077592;28;20044;-72
2023/12/25 04:01:39;;;;;;;10.70;2.03;;;11.10;99.90;;;;;;5094023;28;20395;-73
2023/12/25 04:04:05;;;;;;;8.80;2.10;;;11.10;99.90;;;;;;5111208;28;20496;-73
2023/12/25 04:06:31;;;;;;;9.50;2.13;;;11.10;99.90;;;;;;5077317;28;20500;-73
2023/12/25 04:08:57;;;;;;;7.57;1.65;;;11.10;99.90;;;;;;5110692;28;20105;-73
2023/12/25 04:11:34;;;;;;;9.82;1.90;;;11.10;99.90;;;;;;5110819;28;20040;-73
2023/12/25 04:13:59;;;;;;;11.25;2.03;;;11.20;99.90;;;;;;5110666;28;20043;-74
2023/12/25 04:16:26;;;;;;;11.57;1.80;;;11.10;99.90;;;;;;5060286;28;20036;-71
2023/12/25 04:18:53;;;;;;;10.82;1.80;;;11.10;99.90;;;;;;5076859;28;20040;-72
2023/12/25 04:21:26;;;;;;;10.30;1.80;;;11.10;99.90;;;;;;5110768;28;20132;-73
2023/12/25 04:23:53;;;;;;;8.23;1.80;;;11.00;99.90;;;;;;5110541;28;20044;-73
2023/12/25 04:26:20;;;;;;;10.98;2.00;;;11.00;99.90;;;;;;5076829;28;20044;-73
2023/12/25 04:28:46;;;;;;;10.15;1.83;;;11.00;99.90;;;;;;5110531;28;20400;-73
2023/12/25 04:31:12;;;;;;;9.45;1.92;;;11.00;99.90;;;;;;5059955;28;20039;-72
2023/12/25 04:33:38;;;;;;;11.10;1.90;;;11.00;99.90;;;;;;5110510;28;20407;-73
2023/12/25 04:36:08;;;;;;;9.00;1.90;;;11.00;99.90;;;;;;5076614;28;20032;-73
2023/12/25 04:38:35;;;;;;;10.10;1.52;;;11.00;99.90;;;;;;5110352;28;20066;-73
2023/12/25 04:41:01;;;;;;;8.77;1.63;;;11.00;99.90;;;;;;5076858;28;20376;-71
2023/12/25 04:43:36;;;;;;;10.82;2.00;;;11.00;99.90;;;;;;5093174;28;20101;-73
2023/12/25 04:46:02;;;;;;;9.80;1.80;;;11.00;99.90;;;;;;5060354;28;20404;-73
2023/12/25 04:48:29;;;;;;;10.48;2.00;;;11.00;99.90;;;;;;5076342;28;20126;-73
2023/12/25 04:50:56;;;;;;;8.73;1.77;;;11.00;99.90;;;;;;5060244;28;20388;-73
2023/12/25 04:53:22;;;;;;;11.48;1.90;;;11.00;99.90;;;;;;5059701;28;20052;-73
2023/12/25 04:55:48;;;;;;;9.52;2.00;;;11.00;99.90;;;;;;5093173;28;20051;-73
2023/12/25 04:58:14;;;;;;;9.45;1.80;;;11.00;99.90;;;;;;5059396;28;20044;-72
2023/12/25 05:00:40;;;;;;;9.82;1.85;;;11.00;99.90;;;;;;5059517;28;20036;-73
2023/12/25 05:03:06;;;;;;;8.63;1.70;;;11.00;99.90;;;;;;5076022;28;20040;-73
2023/12/25 05:05:31;;;;;;;9.13;1.83;;;11.10;99.90;;;;;;5042884;28;20257;-73
2023/12/25 05:07:57;;;;;;;11.63;2.00;;;11.10;99.90;;;;;;5042566;28;20040;-72
2023/12/25 05:10:23;;;;;;;9.27;1.83;;;11.10;99.90;;;;;;5109862;28;20036;-72
2023/12/25 05:12:49;;;;;;;9.63;1.83;;;11.10;99.90;;;;;;5076339;28;20496;-72
2023/12/25 05:15:15;;;;;;;8.25;1.70;;;11.10;99.90;;;;;;5043478;28;20032;-72
2023/12/25 05:17:41;;;;;;;7.45;1.85;;;11.10;99.90;;;;;;5076037;28;20043;-72
2023/12/25 05:20:13;;;;;;;12.43;1.90;;;11.10;99.90;;;;;;5092555;28;20385;-72
2023/12/25 05:22:42;;;;;;;12.02;2.05;;;11.10;99.90;;;;;;5075704;28;20044;-72
2023/12/25 05:25:08;;;;;;;9.85;1.90;;;11.10;99.90;;;;;;5059638;28;20044;-73
2023/12/25 05:27:34;;;;;;;8.75;1.60;;;11.10;99.90;;;;;;5109461;28;20106;-72
2023/12/25 05:30:10;;;;;;;10.07;2.00;;;11.10;99.90;;;;;;5075808;28;20032;-73
2023/12/25 05:32:37;;;;;;;10.90;1.85;;;11.20;99.90;;;;;;5060589;28;20075;-72
2023/12/25 05:35:04;;;;;;;6.55;1.50;;;11.20;99.90;;;;;;5109358;28;20035;-73
2023/12/25 05:37:30;;;;;;;8.85;1.67;;;11.20;99.90;;;;;;5075753;28;20567;-73
2023/12/25 05:39:56;;;;;;;10.45;2.10;;;11.20;99.90;;;;;;5059263;28;20472;-73
2023/12/25 05:42:28;;;;;;;7.47;1.45;;;11.10;99.90;;;;;;5059073;28;20032;-73
2023/12/25 05:44:54;;;;;;;8.70;1.75;;;11.20;99.90;;;;;;5075421;28;20035;-73
2023/12/25 05:47:20;;;;;;;10.40;2.00;;;11.10;99.90;;;;;;5058916;28;20189;-74
2023/12/25 05:50:00;;;;;;;8.73;1.60;;;11.10;99.90;;;;;;5058987;28;20423;-74
2023/12/25 05:52:27;;;;;;;8.02;1.75;;;11.10;99.90;;;;;;5059690;28;20083;-73
2023/12/25 05:54:52;;;;;;;7.25;1.38;;;11.10;99.90;;;;;;5058509;28;20043;-73
2023/12/25 05:57:23;;;;;;;9.43;1.80;;;11.20;99.90;;;;;;5108975;28;20035;-74
2023/12/25 05:59:58;;;;;;;8.55;1.80;;;11.20;99.90;;;;;;5046325;28;20131;-73
2023/12/25 06:02:24;;;;;;;10.82;1.80;;;11.10;99.90;;;;;;5058793;28;20526;-73
2023/12/25 06:04:50;;;;;;;8.18;1.70;;;11.10;99.90;;;;;;5075277;28;20040;-73
2023/12/25 06:07:16;;;;;;;9.40;1.60;;;11.10;99.90;;;;;;5108830;28;20043;-73
2023/12/25 06:09:42;;;;;;;7.13;1.58;;;11.10;99.90;;;;;;5041737;28;20043;-73
2023/12/25 06:12:08;;;;;;;9.48;1.92;;;11.10;99.90;;;;;;5091287;28;20036;-73
2023/12/25 06:14:35;;;;;;;10.25;1.83;;;11.10;99.90;;;;;;5058432;28;20036;-73
2023/12/25 06:17:04;;;;;;;12.43;1.90;;;11.10;99.90;;;;;;5074870;28;20040;-72
2023/12/25 06:19:29;;;;;;;10.00;2.10;;;11.10;99.90;;;;;;5075192;28;20040;-73
2023/12/25 06:21:55;;;;;;;9.98;1.77;;;11.10;99.90;;;;;;5075200;28;20044;-71
2023/12/25 06:24:21;;;;;;;9.30;1.73;;;11.00;99.90;;;;;;5075168;28;20044;-72
2023/12/25 06:26:47;;;;;;;10.73;1.73;;;11.00;99.90;;;;;;5058109;28;20044;-73
2023/12/25 06:29:13;;;;;;;9.50;2.00;;;11.00;99.90;;;;;;5058248;28;20113;-72
2023/12/25 06:31:51;;;;;;;9.95;1.85;;;11.00;99.90;;;;;;5075163;28;20042;-72
2023/12/25 06:34:17;;;;;;;8.93;1.75;;;11.00;99.90;;;;;;5074738;28;20399;-72
2023/12/25 06:36:46;;;;;;;7.65;1.63;;;11.00;99.90;;;;;;5075400;28;20032;-73
2023/12/25 06:39:12;;;;;;;7.18;1.85;;;11.00;99.90;;;;;;5091457;28;20070;-72
2023/12/25 06:41:37;;;;;;;12.27;1.95;;;10.90;99.90;;;;;;5091576;28;20142;-73
2023/12/25 06:44:04;;;;;;;10.68;1.70;;;10.90;99.90;;;;;;5091611;28;20047;-74
2023/12/25 06:46:29;;;;;;;8.43;1.70;;;10.90;99.90;;;;;;5058100;28;20131;-74
2023/12/25 06:48:55;;;;;;;7.90;1.95;;;10.80;99.90;;;;;;5091193;28;20135;-72
2023/12/25 06:51:21;;;;;;;10.90;1.90;;;10.80;99.90;;;;;;5041328;28;21466;-73
2023/12/25 06:53:50;;;;;;;7.05;1.60;;;10.80;99.90;;;;;;5058166;28;20040;-72
2023/12/25 06:56:16;;;;;;;9.43;1.90;;;10.70;99.90;;;;;;5058037;28;20036;-73
2023/12/25 06:58:42;;;;;;;11.57;1.88;;;10.70;99.90;;;;;;5074627;28;20032;-73
2023/12/25 07:01:08;;;;;;;7.43;1.58;;;10.70;99.90;;;;;;5074735;28;20046;-73
2023/12/25 07:03:34;;;;;;;9.23;1.92;;;10.80;99.90;;;;;;5074773;28;20129;-73
2023/12/25 07:06:00;;;;;;;8.65;1.52;;;10.70;99.90;;;;;;5074764;28;20500;-73
2023/12/25 07:08:28;;;;;;;8.98;1.80;;;10.70;99.90;;;;;;5074443;28;20040;-73
2023/12/25 07:10:57;;;;;;;9.43;1.85;;;10.60;99.90;;;;;;5057772;28;20032;-71
2023/12/25 07:13:23;;;;;;;9.95;1.95;;;10.60;99.90;;;;;;5108372;28;20048;-72
2023/12/25 07:15:49;;;;;;;7.55;1.77;;;10.60;99.90;;;;;;5074614;28;20036;-72
2023/12/25 07:18:15;;;;;;;8.82;1.88;;;10.60;99.90;;;;;;5074593;28;20512;-72
2023/12/25 07:20:41;;;;;;;11.43;2.00;;;10.50;99.90;;;;;;5091135;28;20127;-72
2023/12/25 07:23:07;;;;;;;9.57;1.90;;;10.50;99.90;;;;;;5074815;28;20047;-73
2023/12/25 07:25:32;;;;;;;9.52;2.03;;;10.50;99.90;;;;;;5061577;28;20047;-74
2023/12/25 07:27:58;;;;;;;10.40;1.58;;;10.50;99.90;;;;;;5061142;28;20046;-73
2023/12/25 07:30:34;;;;;;;10.57;2.00;;;10.50;99.90;;;;;;5061146;28;20585;-73
2023/12/25 07:33:00;;;;;;;9.52;1.80;;;10.40;99.90;;;;;;5060980;28;20032;-73
2023/12/25 07:35:26;;;;;;;10.60;2.15;;;10.40;99.90;;;;;;5094384;28;20084;-73
2023/12/25 07:37:52;;;;;;;10.43;1.80;;;10.50;99.90;;;;;;5077880;28;20047;-73
2023/12/25 07:40:18;;;;;;;10.07;1.90;;;10.40;99.90;;;;;;5060831;28;20051;-73
2023/12/25 07:42:44;;;;;;;11.65;2.10;;;10.40;99.90;;;;;;5077581;28;20044;-72
2023/12/25 07:45:13;;;;;;;9.85;1.83;;;10.40;99.90;;;;;;5060839;28;20036;-73
2023/12/25 07:47:39;;;;;;;11.30;1.90;;;10.40;99.90;;;;;;5077247;28;20076;-72
2023/12/25 07:50:06;;;;;;;11.25;1.95;;;10.40;99.90;;;;;;5060888;28;20082;-73
2023/12/25 07:52:32;;;;;;;10.98;2.08;;;10.30;99.90;;;;;;5077272;28;20105;-73
2023/12/25 07:54:59;;;;;;;10.82;2.15;;;10.30;99.90;;;;;;5060676;28;20044;-73
2023/12/25 07:57:24;;;;;;;11.65;2.05;;;10.30;99.90;;;;;;5060516;28;20040;-72
2023/12/25 07:59:51;;;;;;;8.90;1.88;;;10.30;99.90;;;;;;5060710;28;20036;-73
2023/12/25 08:02:17;;;;;;;8.23;1.77;;;10.30;99.90;;;;;;5060639;28;20050;-74
2023/12/25 08:04:43;;;;;;;10.75;1.80;;;10.30;99.90;;;;;;5077258;28;20079;-73
2023/12/25 08:07:09;;;;;;;13.00;2.30;;;10.30;99.90;;;;;;5093562;28;20054;-72
2023/12/25 08:09:35;;;;;;;11.88;2.60;;;10.30;99.90;;;;;;5060109;28;20044;-73
2023/12/25 08:12:00;;;;;;;11.10;2.50;;;10.20;99.90;;;;;;5060674;28;20051;-72
2023/12/25 08:14:26;;;;;;;13.95;2.70;;;10.20;99.90;;;;;;5093635;28;20043;-73
2023/12/25 08:16:52;;;;;;;8.20;2.58;;;10.20;99.90;;;;;;5093927;28;20173;-72
2023/12/25 08:19:18;;;;;;;10.88;2.45;;;10.20;99.90;;;;;;5077311;28;20048;-72
2023/12/25 08:21:44;;;;;;;13.73;3.53;;;10.20;99.90;;;;;;5060745;28;20092;-72
2023/12/25 08:24:10;;;;;;;12.57;3.15;;;10.20;99.90;;;;;;5060265;28;20377;-72
2023/12/25 08:26:36;;;;;;;12.77;2.90;;;10.20;99.90;;;;;;5043466;28;20043;-73
2023/12/25 08:29:01;;;;;;;11.55;2.60;;;10.20;99.90;;;;;;5093283;28;20040;-72
2023/12/25 08:31:28;;;;;;;11.52;2.45;;;10.20;99.90;;;;;;5076510;28;20173;-72
2023/12/25 08:33:54;;;;;;;10.75;2.80;;;10.20;99.90;;;;;;5042557;28;20389;-72
2023/12/25 08:36:29;;;;;;;12.38;2.50;;;10.20;99.90;;;;;;5060091;28;20036;-72
2023/12/25 08:39:04;;;;;;;10.63;2.38;;;10.10;99.90;;;;;;5076496;28;20043;-74
2023/12/25 08:41:30;;;;;;;11.15;2.10;;;10.10;99.90;;;;;;5110446;28;20043;-77
2023/12/25 08:43:56;;;;;;;13.02;2.30;;;10.10;99.90;;;;;;5110538;28;20047;-78
2023/12/25 08:46:34;;;;;;;9.85;2.13;;;10.10;99.90;;;;;;5110705;28;20040;-79
2023/12/25 08:49:00;;;;;;;11.02;2.50;;;10.10;99.90;;;;;;5110175;28;20043;-78
2023/12/25 08:51:26;;;;;;;9.85;2.28;;;10.10;99.90;;;;;;5076332;28;20036;-78
2023/12/25 08:53:52;;;;;;;10.63;2.13;;;10.10;99.90;;;;;;5059961;28;20082;-78
2023/12/25 08:56:23;;;;;;;11.80;2.50;;;10.10;99.90;;;;;;5110113;28;20036;-78
2023/12/25 08:58:48;;;;;;;12.10;2.17;;;10.10;99.90;;;;;;5060068;28;20124;-79
2023/12/25 09:01:15;;;;;;;10.95;2.17;;;10.10;99.90;;;;;;5059758;28;20471;-78
2023/12/25 09:03:40;;;;;;;14.07;2.40;;;10.10;99.90;;;;;;5059791;28;20177;-78
2023/12/25 09:06:06;;;;;;;11.90;2.40;;;10.10;99.90;;;;;;5060188;28;20131;-78
2023/12/25 09:08:32;;;;;;;11.35;2.38;;;10.20;99.90;;;;;;5059953;28;20040;-78
2023/12/25 09:10:58;;;;;;;12.32;2.63;;;10.20;99.90;;;;;;5060002;28;20032;-78
2023/12/25 09:13:34;;;;;;;9.80;2.25;;;10.20;99.90;;;;;;5060151;28;20043;-78
2023/12/25 09:16:00;;;;;;;10.43;2.50;;;10.20;99.90;;;;;;5075874;28;20047;-78
2023/12/25 09:18:26;;;;;;;10.35;2.47;;;10.30;99.90;;;;;;5075810;28;20046;-78
2023/12/25 09:20:52;;;;;;;13.15;2.50;;;10.30;99.90;;;;;;5075905;28;20484;-78
2023/12/25 09:23:18;;;;;;;11.50;2.40;;;10.30;99.90;;;;;;5092722;28;20557;-73
2023/12/25 09:25:44;;;;;;;10.45;2.35;;;10.30;99.90;;;;;;5092678;28;20499;-73
2023/12/25 09:28:12;;;;;;;15.75;2.42;;;10.30;99.90;;;;;;5075339;28;20058;-74
2023/12/25 09:30:38;;;;;;;12.30;2.15;;;10.30;99.90;;;;;;5075777;28;20032;-73
2023/12/25 09:33:04;;;;;;;14.50;2.28;;;10.30;99.90;;;;;;5075606;28;20506;-73
2023/12/25 09:35:30;;;;;;;13.63;2.42;;;10.30;99.90;;;;;;5075181;28;20043;-71
2023/12/25 09:37:56;;;;;;;10.80;2.40;;;10.30;99.90;;;;;;5109401;28;20036;-74
2023/12/25 09:40:22;;;;;;;13.02;2.50;;;10.30;99.90;;;;;;5059333;28;20122;-77
2023/12/25 09:42:49;;;;;;;10.07;2.38;;;10.30;99.90;;;;;;5075689;28;20040;-78
2023/12/25 09:45:17;;;;;;;11.15;2.40;;;10.40;99.90;;;;;;5109388;28;20484;-78
2023/12/25 09:47:45;;;;;;;12.02;2.47;;;10.30;99.90;;;;;;5074921;28;20076;-78
2023/12/25 09:50:11;;;;;;;13.95;2.50;;;10.40;99.90;;;;;;5075332;28;20036;-78
2023/12/25 09:52:37;;;;;;;12.50;3.40;;;10.40;99.90;;;;;;5075248;28;20036;-79
2023/12/25 09:55:05;;;;;;;9.48;2.17;;;10.40;99.90;;;;;;5074950;28;20540;-78
2023/12/25 09:57:32;;;;;;;10.90;2.35;;;10.40;99.90;;;;;;5075235;28;20039;-78
2023/12/25 10:00:00;;;;;;;9.63;2.25;;;10.40;99.90;;;;;;5075402;28;20484;-79
2023/12/25 10:02:28;;;;;;;11.68;2.30;;;10.40;99.90;;;;;;5058608;28;20502;-78
2023/12/25 10:04:55;;;;;;;10.68;2.25;;;10.40;99.90;;;;;;5109239;28;20546;-78
2023/12/25 10:07:23;;;;;;;12.25;2.50;;;10.40;99.90;;;;;;5058889;28;20597;-79
2023/12/25 10:09:53;;;;;;;13.73;2.05;;;10.50;99.90;;;;;;5074922;28;20046;-78
2023/12/25 10:12:22;;;;;;;12.02;2.45;;;10.50;99.90;;;;;;5075582;28;20058;-78
2023/12/25 10:14:48;;;;;;;13.32;2.28;;;10.50;99.90;;;;;;5058710;28;20032;-79
2023/12/25 10:17:14;;;;;;;10.55;1.95;;;10.40;99.90;;;;;;5074869;28;20550;-78
2023/12/25 10:19:56;;;;;;;12.15;2.40;;;10.50;99.90;;;;;;5074949;28;20127;-78
2023/12/25 10:22:32;;;;;;;13.15;2.40;;;10.50;99.90;;;;;;5074899;28;20040;-78
2023/12/25 10:25:06;;;;;;;12.93;2.40;;;10.50;99.90;;;;;;5075350;28;20101;-78
2023/12/25 10:27:37;;;;;;;8.52;2.00;;;10.60;99.90;;;;;;5091987;28;20089;-78
2023/12/25 10:30:03;;;;;;;10.50;2.28;;;10.60;99.90;;;;;;5108886;28;20046;-78
2023/12/25 10:32:31;;;;;;;10.00;2.00;;;10.70;99.90;;;;;;5058704;28;20036;-78
2023/12/25 10:35:22;;;;;;;11.20;2.20;;;10.70;99.90;;;;;;5059075;28;20082;-78
2023/12/25 10:37:48;;;;;;;9.63;2.13;;;10.70;99.90;;;;;;5074979;28;20040;-79
2023/12/25 10:40:22;;;;;;;12.93;2.15;;;10.70;99.90;;;;;;5058191;28;20118;-79
2023/12/25 10:42:53;;;;;;;13.65;2.45;;;10.80;99.90;;;;;;5108852;28;20040;-78
2023/12/25 10:45:22;;;;;;;11.65;2.35;;;10.80;99.90;;;;;;5057178;28;20110;-78
2023/12/25 10:47:54;;;;;;;9.50;2.17;;;10.70;99.90;;;;;;5071087;28;20040;-78
2023/12/25 10:50:22;;;;;;;11.60;2.33;;;10.70;99.90;;;;;;5071340;28;20117;-78
2023/12/25 10:52:52;;;;;;;11.50;2.25;;;10.70;99.90;;;;;;5071038;28;20041;-78
2023/12/25 10:55:42;;;;;;;15.35;2.67;;;10.80;99.90;;;;;;5071475;28;20041;-78
2023/12/25 10:58:11;;;;;;;13.68;2.35;;;10.70;99.90;;;;;;5073272;28;20063;-79
2023/12/25 11:00:49;;;;;;;12.32;2.33;;;10.70;99.90;;;;;;5075178;28;20087;-79
2023/12/25 11:03:15;;;;;;;13.48;2.40;;;10.70;99.90;;;;;;5075119;28;20357;-78
2023/12/25 11:05:42;;;;;;;14.00;2.50;;;10.70;99.90;;;;;;5074734;28;20041;-72
2023/12/25 11:08:08;;;;;;;11.07;2.20;;;10.70;99.90;;;;;;5074827;28;20454;-72
2023/12/25 11:10:35;;;;;;;13.73;2.33;;;10.70;99.90;;;;;;5091603;28;20036;-72
2023/12/25 11:13:02;;;;;;;12.82;2.53;;;10.60;99.90;;;;;;5074925;28;20036;-72
2023/12/25 11:15:28;;;;;;;13.95;2.50;;;10.60;99.90;;;;;;5058437;28;20074;-73
2023/12/25 11:17:54;;;;;;;11.70;2.40;;;10.60;99.90;;;;;;5041357;28;20135;-73
2023/12/25 11:20:21;;;;;;;10.82;2.40;;;10.60;99.90;;;;;;5074842;28;20132;-73
2023/12/25 11:22:47;;;;;;;11.82;2.60;;;10.60;99.90;;;;;;5041580;28;20040;-72
2023/12/25 11:25:18;;;;;;;14.00;3.30;;;10.60;99.90;;;;;;5041090;28;20043;-73
2023/12/25 11:27:53;;;;;;;14.43;2.70;;;10.60;99.90;;;;;;5074385;28;20127;-73
2023/12/25 11:30:21;;;;;;;12.32;2.78;;;10.60;99.90;;;;;;5074538;28;20318;-73
2023/12/25 11:32:49;;;;;;;9.45;2.13;;;10.60;99.90;;;;;;5074476;28;20036;-73
2023/12/25 11:35:17;;;;;;;12.43;2.65;;;10.60;99.90;;;;;;5057737;28;20049;-73
2023/12/25 11:37:43;;;;;;;11.25;2.50;;;10.60;99.90;;;;;;5058002;28;20036;-73
2023/12/25 11:40:09;;;;;;;12.77;2.50;;;10.60;99.90;;;;;;5041067;28;20047;-73
2023/12/25 11:42:36;;;;;;;10.65;2.90;;;10.70;99.90;;;;;;5024930;28;20508;-74
2023/12/25 11:45:04;;;;;;;13.70;2.58;;;10.60;99.90;;;;;;5074380;28;20064;-73
2023/12/25 11:47:48;;;;;;;13.57;2.70;;;10.60;99.90;;;;;;5057763;28;20048;-74
2023/12/25 11:50:14;;;;;;;12.27;2.60;;;10.60;99.90;;;;;;5074283;28;20098;-72
2023/12/25 11:52:44;;;;;;;10.35;2.42;;;10.70;99.90;;;;;;5074077;28;20060;-73
2023/12/25 11:55:13;;;;;;;11.98;2.20;;;10.70;99.90;;;;;;5073769;28;20052;-73
2023/12/25 11:57:43;;;;;;;13.02;2.60;;;10.70;99.90;;;;;;5057169;28;20036;-73
2023/12/25 12:00:31;;;;;;;12.57;2.28;;;10.80;99.90;;;;;;5073672;28;20049;-73
2023/12/25 12:02:58;;;;;;;13.15;2.60;;;10.80;99.90;;;;;;5074046;28;20512;-73
2023/12/25 12:05:27;;;;;;;12.60;2.58;;;10.80;99.90;;;;;;5041499;28;20033;-73
2023/12/25 12:07:56;;;;;;;15.00;2.80;;;10.80;99.90;;;;;;5073840;28;20488;-73
2023/12/25 12:10:22;;;;;;;16.77;2.58;;;10.90;99.90;;;;;;5040209;28;20036;-73
2023/12/25 12:12:48;;;;;;;11.82;2.92;;;10.80;99.90;;;;;;5040362;28;20404;-74
2023/12/25 12:15:15;;;;;;;12.77;2.33;;;10.80;99.90;;;;;;5057207;28;20067;-73
2023/12/25 12:17:40;;;;;;;14.27;2.45;;;10.80;99.90;;;;;;5040373;28;20044;-73
2023/12/25 12:20:07;;;;;;;10.32;2.40;;;10.80;99.90;;;;;;5073612;28;20036;-73
2023/12/25 12:22:33;;;;;;;11.40;2.63;;;10.80;99.90;;;;;;5040398;28;20035;-72
2023/12/25 12:25:15;;;;;;;13.27;2.50;;;10.90;99.90;;;;;;5073406;28;20074;-73
2023/12/25 12:27:41;;;;;;;14.38;2.83;;;10.90;99.90;;;;;;5056322;28;20051;-72
2023/12/25 12:30:08;;;;;;;12.82;2.70;;;10.90;99.90;;;;;;5040083;28;20051;-72
2023/12/25 12:32:39;;;;;;;11.30;2.60;;;10.90;99.90;;;;;;5057184;28;20484;-73
2023/12/25 12:35:05;;;;;;;10.95;2.30;;;11.00;99.90;;;;;;5073128;28;20143;-73
2023/12/25 12:37:35;;;;;;;12.45;2.75;;;11.00;99.90;;;;;;5056700;28;20043;-73
2023/12/25 12:40:06;;;;;;;11.85;2.35;;;11.00;99.90;;;;;;5039748;28;20045;-73